EDT,Max TemperatureF,Mean TemperatureF,Min TemperatureF,Max Dew PointF,MeanDew PointF,Min DewpointF,Max Humidity, Mean Humidity, Min Humidity, Max Sea Level PressureIn, Mean Sea Level PressureIn, Min Sea Level PressureIn, Max VisibilityMiles, Mean VisibilityMiles, Min VisibilityMiles, Max Wind SpeedMPH, Mean Wind SpeedMPH, Max Gust SpeedMPH,PrecipitationIn, CloudCover, Events, WindDirDegrees
2013-8-1,83,74,66,73,69,65,100,87,53,30.07,30.01,29.96,10,7,1,10,1,,0.40,5,Rain,229
2013-8-2,83,72,61,74,66,60,100,82,49,30.12,30.08,30.02,10,8,1,4,0,,0.00,2,,146
2013-8-3,86,76,65,72,67,61,100,78,45,30.12,30.08,30.03,10,8,0,8,1,,0.00,3,Fog,253
2013-8-4,86,74,63,68,63,53,100,74,32,30.13,30.06,30.02,10,9,4,10,2,,0.00,1,,356
2013-8-5,83,72,60,69,65,60,100,78,57,30.17,30.11,30.05,10,9,3,7,2,,0.00,5,Rain,151
2013-8-6,80,74,68,69,68,66,100,87,66,30.14,30.09,30.05,10,9,5,10,1,,0.00,7,Rain,122
2013-8-7,76,72,67,72,70,67,100,95,82,30.17,30.13,30.10,10,6,2,5,0,,0.15,7,Rain,176
2013-8-8,83,76,68,74,71,68,100,89,63,30.15,30.12,30.08,10,6,0,10,1,,0.00,5,Fog-Rain,241
2013-8-9,87,77,67,73,70,67,100,86,54,30.15,30.12,30.09,10,7,1,9,2,16,0.00,1,Rain,219
2013-8-10,87,78,69,74,70,67,100,88,50,30.21,30.17,30.13,10,7,0,15,1,23,0.00,3,Fog-Rain,225
2013-8-11,88,78,67,73,70,66,100,82,47,30.22,30.17,30.13,10,8,0,8,1,,0.00,4,Fog,221
2013-8-12,88,76,65,74,69,65,100,82,48,30.16,30.11,30.05,10,8,0,9,1,,0.00,2,Fog-Rain,248
2013-8-13,85,76,67,73,69,64,100,85,55,30.05,29.97,29.91,10,6,0,8,1,22,0.27,5,Fog-Rain,232
2013-8-14,80,70,60,68,62,58,100,77,51,30.17,30.05,29.97,10,10,4,7,2,,0.00,3,Rain,50
2013-8-15,70,63,56,64,58,55,100,82,59,30.25,30.20,30.16,10,10,4,7,2,,0.00,5,,18
2013-8-16,73,64,56,61,58,55,100,82,55,30.26,30.21,30.18,10,9,4,6,2,,0.00,4,,39
2013-8-17,67,62,56,64,60,57,100,92,73,30.29,30.25,30.22,10,8,2,8,2,,0.04,8,Rain,14
2013-8-18,75,68,62,69,65,63,100,91,69,30.30,30.25,30.21,10,9,4,6,0,,0.09,7,Rain,140
2013-8-19,74,70,65,69,67,64,100,92,70,30.27,30.22,30.17,10,8,3,5,0,,0.01,6,Rain,147
2013-8-20,78,70,63,70,67,64,100,91,67,30.28,30.24,30.19,10,7,0,5,0,,0.00,5,Fog,136
2013-8-21,79,72,64,72,68,64,100,93,72,30.32,30.26,30.19,10,7,0,6,1,,0.00,4,Fog-Rain,231
2013-8-22,86,76,65,72,68,65,100,83,49,30.24,30.18,30.09,10,6,0,6,1,,0.00,4,Fog,198
2013-8-23,83,72,61,72,67,62,100,87,53,30.18,30.11,30.07,10,7,0,8,1,16,0.01,2,Fog-Rain,135
2013-8-24,79,69,59,67,60,53,99,74,40,30.39,30.30,30.19,10,10,7,10,2,,0.00,2,,53
2013-8-25,78,65,52,65,58,52,100,80,46,30.47,30.41,30.37,10,9,0,7,2,,0.00,3,Fog,62
2013-8-26,82,67,52,68,61,53,100,81,45,30.41,30.31,30.20,10,8,0,5,0,,0.00,2,Fog,201
2013-8-27,87,72,57,74,64,58,100,81,43,30.22,30.14,30.09,10,7,0,8,1,,0.00,1,Fog,317
2013-8-28,87,75,63,71,67,64,100,77,46,30.12,30.06,30.01,10,7,1,7,1,,0.00,0,,219
2013-8-29,92,81,70,72,68,61,99,71,35,30.10,30.02,29.98,10,9,2,9,2,,0.53,3,Rain,319
2013-8-30,83,76,70,73,70,66,100,85,60,30.15,30.09,30.02,10,7,2,6,1,,0.00,6,Rain,150
2013-8-31,86,76,66,72,69,67,100,88,53,30.05,30.01,29.97,10,7,0,15,1,22,0.94,2,Rain,249